Time;durP1;ratioP1;P1;durP2;ratioP2;P2;SDS_P1;SDS_P2;PMS_P1;PMS_P2;Temp;Humidity;BMP_temperature;BMP_pressure;BME280_temperature;BME280_humidity;BME280_pressure;Samples;Min_cycle;Max_cycle;Signal;HPM_P1;HPM_P2
2023/05/24 00:01:27;;;;;;;9.75;3.47;;;;;;;11.66;88.15;100906.03;4950038;29;19918;-86
2023/05/24 00:03:59;;;;;;;10.35;3.70;;;;;;;11.67;88.72;100912.19;4951526;29;20047;-87
2023/05/24 00:06:36;;;;;;;;;;;;;;;11.58;89.67;100914.34;4933767;29;20504;-87
2023/05/24 00:09:05;;;;;;;10.70;4.28;;;;;;;11.51;89.36;100907.56;4950095;29;19919;-89
2023/05/24 00:11:47;;;;;;;9.98;3.65;;;;;;;11.44;91.53;100903.47;4936762;29;20051;-90
2023/05/24 00:14:25;;;;;;;11.30;3.88;;;;;;;11.49;91.64;100914.72;4947425;28;20047;-87
2023/05/24 00:16:54;;;;;;;12.30;3.78;;;;;;;11.37;92.34;100894.03;4949722;29;20043;-87
2023/05/24 00:19:22;;;;;;;11.80;3.60;;;;;;;11.36;91.83;100904.69;4969472;28;20047;-88
2023/05/24 00:21:50;;;;;;;9.30;3.88;;;;;;;11.38;93.44;100911.66;4947823;29;20082;-88
2023/05/24 00:24:34;;;;;;;13.75;3.90;;;;;;;11.44;93.13;100905.25;5000442;28;20085;-88
2023/05/24 00:27:06;;;;;;;8.50;3.10;;;;;;;11.35;92.32;100900.31;5004472;28;20046;-88
2023/05/24 00:29:35;;;;;;;15.25;4.07;;;;;;;11.44;91.40;100911.41;5019997;28;20043;-88
2023/05/24 00:32:04;;;;;;;11.35;3.53;;;;;;;11.42;91.80;100913.25;5021099;28;20042;-88
2023/05/24 00:34:35;;;;;;;10.93;3.45;;;;;;;11.20;92.78;100878.81;5022756;28;20109;-86
2023/05/24 00:37:17;;;;;;;12.45;3.53;;;;;;;11.37;92.32;100920.53;5003117;28;20077;-86
2023/05/24 00:39:48;;;;;;;12.13;3.60;;;;;;;11.16;91.76;100889.66;5006139;28;20049;-87
2023/05/24 00:42:21;;;;;;;14.57;3.55;;;;;;;11.19;93.05;100913.34;5004521;28;20054;-86
2023/05/24 00:44:50;;;;;;;9.60;3.70;;;;;;;11.04;94.20;100900.72;5006787;28;20117;-87
2023/05/24 00:47:19;;;;;;;12.77;3.40;;;;;;;11.07;93.42;100908.56;5007518;28;20178;-87
2023/05/24 00:49:45;;;;;;;9.15;3.65;;;;;;;11.05;93.76;100899.78;5007061;28;20443;-87
2023/05/24 00:52:14;;;;;;;10.45;4.07;;;;;;;11.17;93.33;100917.88;4991581;28;20049;-88
2023/05/24 00:54:52;;;;;;;8.70;3.13;;;;;;;11.10;92.97;100913.75;5006777;28;20052;-88
2023/05/24 00:57:20;;;;;;;14.80;3.55;;;;;;;11.16;92.12;100921.44;4990590;28;20050;-89
2023/05/24 00:59:52;;;;;;;14.23;3.45;;;;;;;10.98;91.88;100896.56;5006785;28;20042;-89
2023/05/24 01:02:24;;;;;;;13.43;3.85;;;;;;;11.05;91.78;100921.88;4991858;28;20096;-88
2023/05/24 01:04:55;;;;;;;9.88;3.17;;;;;;;10.76;92.80;100893.03;5007095;28;20062;-88
2023/05/24 01:07:53;;;;;;;11.75;3.47;;;;;;;10.92;92.02;100928.59;4992612;28;20050;-88
2023/05/24 01:10:48;;;;;;;12.65;3.30;;;;;;;10.80;92.40;100931.72;5007860;28;20138;-88
2023/05/24 01:13:44;;;;;;;13.60;3.40;;;;;;;10.70;94.05;100928.59;5008547;28;20106;-88
2023/05/24 01:16:40;;;;;;;11.40;3.20;;;;;;;10.66;93.92;100929.63;4982457;28;20052;-87
2023/05/24 01:19:36;;;;;;;12.75;3.67;;;;;;;10.66;93.33;100926.97;4990540;28;20046;-87
2023/05/24 01:22:26;;;;;;;12.80;3.33;;;;;;;10.57;92.33;100919.38;5007253;28;20086;-88
2023/05/24 01:25:24;;;;;;;13.45;3.22;;;;;;;10.31;92.93;100882.44;5009228;28;20084;-88
2023/05/24 01:27:52;;;;;;;11.93;3.55;;;;;;;10.41;91.93;100912.94;4991451;28;20057;-88
2023/05/24 01:30:19;;;;;;;11.25;3.35;;;;;;;10.37;91.54;100911.34;5027758;28;20045;-89
2023/05/24 01:32:47;;;;;;;8.80;2.85;;;;;;;10.40;91.16;100919.16;5059076;28;20053;-90
2023/05/24 01:35:18;;;;;;;12.45;3.25;;;;;;;10.31;91.20;100908.91;5059641;28;20137;-90
2023/05/24 01:37:52;;;;;;;8.60;2.85;;;;;;;10.35;90.61;100915.84;5043428;28;20053;-89
2023/05/24 01:40:18;;;;;;;11.93;3.00;;;;;;;10.30;90.08;100910.69;5049719;28;20041;-90
2023/05/24 01:43:14;;;;;;;11.60;3.45;;;;;;;10.29;90.96;100916.91;5042565;28;20045;-87
2023/05/24 01:46:00;;;;;;;8.95;2.92;;;;;;;10.37;90.74;100914.00;5027461;28;20108;-89
2023/05/24 01:48:45;;;;;;;10.18;3.17;;;;;;;10.38;90.88;100916.59;5045237;28;20056;-88
2023/05/24 01:51:19;;;;;;;14.77;3.60;;;;;;;10.39;90.93;100922.75;5032891;28;20045;-85
2023/05/24 01:53:58;;;;;;;12.20;3.10;;;;;;;10.19;89.63;100878.50;5019131;28;20042;-87
2023/05/24 01:56:34;;;;;;;10.38;2.92;;;;;;;10.46;89.61;100916.28;5014064;28;20073;-90
2023/05/24 01:59:05;;;;;;;9.40;2.80;;;;;;;10.45;89.25;100918.06;5013241;28;20050;-88
2023/05/24 02:01:34;;;;;;;11.38;2.92;;;;;;;10.43;89.41;100913.75;4997896;28;20110;-87
2023/05/24 02:04:24;;;;;;;12.80;2.83;;;;;;;10.45;90.33;100912.75;4999903;28;20050;-87
2023/05/24 02:06:51;;;;;;;9.65;3.08;;;;;;;10.39;90.43;100910.34;4991758;28;20050;-86
2023/05/24 02:09:19;;;;;;;11.02;3.30;;;;;;;10.41;89.98;100911.16;4999486;28;20045;-87
2023/05/24 02:11:46;;;;;;;7.88;3.00;;;;;;;10.42;90.43;100914.66;5029418;28;20049;-87
2023/05/24 02:14:16;;;;;;;9.57;3.38;;;;;;;10.20;90.75;100882.88;5010136;28;20053;-89
2023/05/24 02:16:45;;;;;;;9.02;2.80;;;;;;;10.09;91.77;100896.44;5007423;28;20074;-89
2023/05/24 02:19:13;;;;;;;9.35;3.00;;;;;;;10.14;91.78;100906.88;4993384;28;20125;-89
2023/05/24 02:21:41;;;;;;;11.10;3.75;;;;;;;9.97;92.34;100878.38;5024615;28;20060;-88
2023/05/24 02:24:11;;;;;;;11.02;3.05;;;;;;;10.02;93.18;100913.47;5026517;28;20072;-88
2023/05/24 02:26:39;;;;;;;11.68;3.03;;;;;;;9.53;94.10;100847.38;5029914;28;20125;-88
2023/05/24 02:29:07;;;;;;;10.52;3.17;;;;;;;9.75;94.78;100894.19;4980306;28;20048;-88
2023/05/24 02:31:40;;;;;;;10.80;3.28;;;;;;;9.83;96.13;100923.84;5046416;28;20033;-88
2023/05/24 02:34:06;;;;;;;13.23;3.50;;;;;;;9.74;95.58;100907.47;5038535;28;20049;-88
2023/05/24 02:36:35;;;;;;;12.38;3.25;;;;;;;9.74;96.32;100921.53;5050140;28;20045;-86
2023/05/24 02:39:16;;;;;;;13.30;3.15;;;;;;;9.77;96.67;100923.19;5031166;28;20067;-88
2023/05/24 02:42:03;;;;;;;16.05;3.58;;;;;;;9.72;97.19;100926.03;5053900;28;20064;-87
2023/05/24 02:44:31;;;;;;;11.23;3.03;;;;;;;9.59;97.41;100913.28;5048147;28;20068;-87
2023/05/24 02:46:59;;;;;;;12.23;3.88;;;;;;;9.59;98.01;100911.50;5051144;28;20053;-88
2023/05/24 02:49:29;;;;;;;10.10;3.08;;;;;;;9.62;99.40;100921.09;5051887;28;20072;-87
2023/05/24 02:51:56;;;;;;;12.50;4.03;;;;;;;9.62;98.29;100914.00;5061474;28;20136;-87
2023/05/24 02:54:26;;;;;;;14.45;3.30;;;;;;;9.58;97.49;100907.13;5030720;28;20068;-88
2023/05/24 02:56:55;;;;;;;8.52;3.13;;;;;;;9.52;98.90;100912.63;5063843;28;20069;-87
2023/05/24 02:59:25;;;;;;;11.33;3.50;;;;;;;9.34;98.79;100903.53;5042922;28;20038;-88
2023/05/24 03:01:56;;;;;;;11.73;3.22;;;;;;;9.51;99.29;100937.31;5036836;28;20038;-88
2023/05/24 03:04:26;;;;;;;11.95;3.25;;;;;;;9.52;99.19;100933.78;5018795;28;20053;-89
2023/05/24 03:06:55;;;;;;;14.23;3.22;;;;;;;9.42;99.81;100921.78;5030970;28;20033;-88
2023/05/24 03:09:35;;;;;;;15.98;3.88;;;;;;;9.41;99.59;100923.56;5014353;28;20048;-88
2023/05/24 03:12:06;;;;;;;11.52;3.08;;;;;;;9.20;100.00;100887.28;5028205;28;20441;-88
2023/05/24 03:14:35;;;;;;;17.75;3.33;;;;;;;9.42;100.00;100925.28;5029002;28;20080;-89
2023/05/24 03:17:02;;;;;;;11.52;3.35;;;;;;;9.46;100.00;100924.25;5027166;28;20068;-88
2023/05/24 03:19:33;;;;;;;10.25;3.35;;;;;;;9.33;100.00;100901.81;5028945;28;20380;-89
2023/05/24 03:22:02;;;;;;;9.85;3.75;;;;;;;9.41;100.00;100913.00;5045410;28;20049;-88
2023/05/24 03:24:32;;;;;;;13.23;3.20;;;;;;;9.40;100.00;100919.19;5026340;28;20045;-88
2023/05/24 03:27:01;;;;;;;10.80;3.10;;;;;;;9.20;100.00;100895.19;5010210;28;20084;-88
2023/05/24 03:29:31;;;;;;;;;;;;;;;9.29;100.00;100921.31;5028898;28;20382;-88
2023/05/24 03:31:57;;;;;;;13.38;3.47;;;;;;;9.15;100.00;100908.56;5023884;28;19980;-88
2023/05/24 03:34:24;;;;;;;13.45;3.20;;;;;;;9.06;99.88;100913.28;5042333;28;20037;-88
2023/05/24 03:36:53;;;;;;;11.60;3.20;;;;;;;8.88;100.00;100887.47;5026000;28;20048;-90
2023/05/24 03:39:20;;;;;;;11.02;3.10;;;;;;;8.87;100.00;100898.94;5009338;28;20075;-88
2023/05/24 03:41:48;;;;;;;10.20;2.70;;;;;;;8.99;100.00;100917.91;5023891;28;20060;-88
2023/05/24 03:44:17;;;;;;;15.32;3.33;;;;;;;8.89;100.00;100905.91;5025527;28;20046;-88
2023/05/24 03:46:51;;;;;;;10.70;2.75;;;;;;;9.02;100.00;100925.72;5042739;28;20446;-88
2023/05/24 03:49:24;;;;;;;10.73;2.70;;;;;;;8.97;98.80;100924.16;5031583;28;20037;-89
2023/05/24 03:51:54;;;;;;;;;;;;;;;8.90;99.38;100923.47;5038330;28;20049;-90
2023/05/24 03:54:21;;;;;;;12.35;2.88;;;;;;;8.90;100.00;100922.63;5029543;28;19959;-89
2023/05/24 03:56:48;;;;;;;9.63;2.95;;;;;;;8.91;99.69;100929.63;5024330;28;20470;-88
2023/05/24 03:59:15;;;;;;;8.75;2.60;;;;;;;8.87;100.00;100933.28;5022758;28;20064;-89
2023/05/24 04:01:42;;;;;;;14.05;2.80;;;;;;;8.83;100.00;100921.06;5023163;28;20041;-87
2023/05/24 04:04:22;;;;;;;10.23;2.50;;;;;;;8.90;100.00;100935.81;5024907;28;20054;-87
2023/05/24 04:06:52;;;;;;;10.25;2.67;;;;;;;8.81;100.00;100922.91;5043862;28;20462;-87
2023/05/24 04:09:21;;;;;;;13.00;3.00;;;;;;;8.92;100.00;100936.66;5026951;28;20064;-87
2023/05/24 04:12:03;;;;;;;15.55;3.03;;;;;;;9.06;100.00;100943.22;5028716;28;20041;-87
2023/05/24 04:14:31;;;;;;;12.93;2.90;;;;;;;9.11;98.36;100943.06;5026376;28;20042;-86
2023/05/24 04:16:58;;;;;;;12.18;3.35;;;;;;;9.06;99.30;100937.94;5026590;28;20045;-87
2023/05/24 04:19:26;;;;;;;12.05;3.65;;;;;;;9.03;99.88;100945.09;5045220;28;20052;-88
2023/05/24 04:21:56;;;;;;;13.57;2.85;;;;;;;9.04;100.00;100944.16;5026961;28;20052;-87
2023/05/24 04:24:26;;;;;;;12.48;2.90;;;;;;;9.05;98.97;100943.25;5026496;28;20053;-88
2023/05/24 04:26:57;;;;;;;14.50;3.00;;;;;;;8.96;98.53;100936.50;5027405;28;20107;-88
2023/05/24 04:29:26;;;;;;;13.10;2.83;;;;;;;9.09;97.84;100950.19;5025558;28;20072;-88
2023/05/24 04:32:00;;;;;;;10.55;2.83;;;;;;;9.09;97.90;100955.47;5031978;28;20037;-87
2023/05/24 04:34:41;;;;;;;9.57;2.47;;;;;;;9.17;97.57;100957.84;5036570;28;20053;-87
2023/05/24 04:37:12;;;;;;;14.35;2.90;;;;;;;9.13;95.11;100957.94;5049666;28;20541;-87
2023/05/24 04:39:49;;;;;;;;;;;;;;;9.17;94.73;100960.50;5045294;28;20095;-87
2023/05/24 04:42:19;;;;;;;12.10;2.33;;;;;;;9.19;96.24;100964.81;5028712;28;19917;-87
2023/05/24 04:44:55;;;;;;;13.15;2.60;;;;;;;9.22;94.97;100970.00;5036033;28;20045;-87
2023/05/24 04:47:22;;;;;;;12.55;2.65;;;;;;;9.29;96.16;100973.31;5026231;28;20492;-87
2023/05/24 04:49:48;;;;;;;13.45;2.75;;;;;;;9.39;94.34;100972.09;5025966;28;20045;-88
2023/05/24 04:52:17;;;;;;;10.98;2.60;;;;;;;9.30;91.13;100946.81;5026725;28;20482;-87
2023/05/24 04:54:45;;;;;;;14.23;2.85;;;;;;;9.27;91.54;100941.66;4992124;28;20041;-87
2023/05/24 04:57:14;;;;;;;11.10;2.60;;;;;;;9.44;93.42;100952.50;5010722;28;20398;-87
2023/05/24 04:59:42;;;;;;;18.13;3.10;;;;;;;9.54;90.22;100963.66;5007557;28;20045;-87
2023/05/24 05:02:10;;;;;;;13.40;2.40;;;;;;;9.53;89.86;100964.59;5041189;28;20046;-88
2023/05/24 05:04:37;;;;;;;20.83;2.50;;;;;;;9.55;91.22;100964.53;5022791;28;20084;-88
2023/05/24 05:07:18;;;;;;;12.63;2.47;;;;;;;9.59;91.87;100960.88;5026226;28;20053;-87
2023/05/24 05:09:46;;;;;;;11.05;2.20;;;;;;;9.62;90.66;100964.25;5008679;28;20048;-87
2023/05/24 05:12:14;;;;;;;16.98;2.90;;;;;;;9.60;88.77;100963.44;5024351;28;20064;-88
2023/05/24 05:14:42;;;;;;;18.73;2.58;;;;;;;9.67;89.10;100967.63;5040842;28;20494;-87
2023/05/24 05:17:11;;;;;;;14.55;3.00;;;;;;;9.49;88.87;100950.59;5026287;28;20076;-87
2023/05/24 05:19:38;;;;;;;15.75;2.88;;;;;;;9.53;89.58;100956.66;5011214;28;20132;-88
2023/05/24 05:22:16;;;;;;;16.63;3.17;;;;;;;9.49;90.75;100955.88;5012227;28;20501;-87
2023/05/24 05:24:58;;;;;;;13.70;2.78;;;;;;;9.63;90.41;100980.97;5032367;28;20141;-87
2023/05/24 05:27:32;;;;;;;13.00;2.80;;;;;;;9.67;91.18;100979.97;4988017;28;20385;-88
2023/05/24 05:30:02;;;;;;;13.82;2.95;;;;;;;9.68;92.15;100977.28;4986315;28;20042;-86
2023/05/24 05:32:32;;;;;;;16.93;3.37;;;;;;;9.81;91.32;100983.00;4987122;28;20042;-87
2023/05/24 05:35:09;;;;;;;12.07;3.00;;;;;;;9.91;89.38;100980.94;4975174;28;20081;-87
2023/05/24 05:37:53;;;;;;;13.25;3.00;;;;;;;9.99;89.58;100997.38;4993166;28;20514;-87
2023/05/24 05:40:21;;;;;;;13.00;2.97;;;;;;;10.02;86.94;100994.63;4998152;28;20053;-87
2023/05/24 05:43:11;;;;;;;;;;;;;;;10.05;86.83;100992.75;4999884;28;20479;-87
2023/05/24 05:45:38;;;;;;;15.68;2.92;;;;;;;10.12;89.53;100999.53;4996743;28;19985;-86
2023/05/24 05:48:06;;;;;;;14.98;3.05;;;;;;;9.98;86.38;100963.91;4999295;28;20046;-85
2023/05/24 05:50:33;;;;;;;11.88;2.83;;;;;;;10.25;83.95;100989.41;4997683;28;20046;-86
2023/05/24 05:53:18;;;;;;;19.13;3.78;;;;;;;10.30;84.62;100998.06;4996776;28;20148;-88
2023/05/24 05:55:45;;;;;;;12.50;2.67;;;;;;;10.29;85.20;100991.03;4980001;28;20061;-85
2023/05/24 05:58:12;;;;;;;14.15;3.15;;;;;;;10.41;84.83;101003.81;4997690;28;20049;-87
2023/05/24 06:00:45;;;;;;;18.60;2.97;;;;;;;10.50;85.04;101005.28;4996663;28;20069;-87
2023/05/24 06:03:30;;;;;;;16.48;3.42;;;;;;;10.53;81.57;101006.03;4997486;28;20046;-88
2023/05/24 06:05:57;;;;;;;14.23;3.00;;;;;;;10.66;82.85;101008.22;4995415;28;20038;-87
2023/05/24 06:08:33;;;;;;;17.13;3.40;;;;;;;10.86;80.62;101014.47;5012570;28;20061;-87
2023/05/24 06:11:06;;;;;;;16.42;2.97;;;;;;;11.09;81.71;101004.78;4991981;28;20077;-87
2023/05/24 06:13:37;;;;;;;18.15;3.58;;;;;;;11.22;78.44;100983.00;4993795;28;20054;-87
2023/05/24 06:16:15;;;;;;;16.90;3.05;;;;;;;11.72;74.38;101006.59;4989028;28;20046;-87
2023/05/24 06:19:14;;;;;;;11.95;2.53;;;;;;;11.97;72.50;101009.09;4958422;29;20206;-88
2023/05/24 06:22:05;;;;;;;15.18;2.90;;;;;;;12.26;70.51;101003.41;4971091;29;20098;-88
2023/05/24 06:24:42;;;;;;;18.27;3.25;;;;;;;12.40;69.33;101012.56;4953912;29;20059;-87
2023/05/24 06:27:14;;;;;;;17.55;3.22;;;;;;;12.38;67.84;101022.38;5314236;23;20042;-88
2023/05/24 06:29:51;;;;;;;12.55;3.50;;;;;;;12.38;67.05;100991.38;5402605;23;20043;-88
2023/05/24 06:39:16;;;;;;;21.05;3.92;;;;;;;12.57;66.18;101002.03;5342728;23;20389;-88
2023/05/24 06:41:52;;;;;;;17.30;3.25;;;;;;;12.83;65.90;101009.66;5033727;28;20399;-88
2023/05/24 06:44:33;;;;;;;14.85;3.75;;;;;;;12.90;64.53;100999.63;5019805;28;20061;-88
2023/05/24 06:47:24;;;;;;;9.15;2.80;;;;;;;13.27;60.48;101020.88;5041816;28;20117;-90
2023/05/24 06:49:53;;;;;;;13.35;3.78;;;;;;;13.49;61.04;101017.19;5033245;28;20046;-86
2023/05/24 06:52:28;;;;;;;17.90;3.55;;;;;;;13.67;57.71;101002.97;5012922;28;20128;-86
2023/05/24 06:55:11;;;;;;;13.52;3.60;;;;;;;14.04;58.58;101008.13;5027543;28;20046;-86
2023/05/24 06:57:52;;;;;;;14.45;3.30;;;;;;;14.39;56.16;101008.97;5022666;28;20042;-86
2023/05/24 07:00:23;;;;;;;16.00;3.53;;;;;;;14.66;55.70;101006.63;5025508;28;20041;-86
2023/05/24 07:02:57;;;;;;;15.23;3.78;;;;;;;15.09;53.31;101004.31;5007761;28;20046;-86
2023/05/24 07:05:28;;;;;;;12.40;2.35;;;;;;;15.08;52.92;100997.25;5026497;28;20109;-87
2023/05/24 07:08:13;;;;;;;12.27;2.83;;;;;;;15.03;53.40;101020.63;5024267;28;20046;-88
2023/05/24 07:11:05;;;;;;;10.38;2.88;;;;;;;14.80;52.30;100981.88;5022901;28;20037;-86
2023/05/24 07:16:25;;;;;;;14.48;3.00;;;;;;;15.08;51.65;101008.78;4987144;28;20050;-87
2023/05/24 07:19:03;;;;;;;14.95;3.33;;;;;;;15.18;52.07;101011.78;4984747;28;20051;-86
2023/05/24 07:21:40;;;;;;;15.65;3.28;;;;;;;15.42;51.74;101020.22;4987185;28;20106;-86
2023/05/24 07:24:10;;;;;;;13.32;3.20;;;;;;;15.53;50.03;101024.94;4986280;28;20053;-86
2023/05/24 07:26:42;;;;;;;8.93;3.08;;;;;;;15.32;49.22;101029.66;4985257;28;20051;-87
2023/05/24 07:29:13;;;;;;;12.25;3.00;;;;;;;15.20;52.21;101022.38;4973726;28;20384;-86
2023/05/24 07:31:44;;;;;;;10.95;3.17;;;;;;;15.32;49.29;101040.34;4988207;28;20428;-86
2023/05/24 07:34:54;;;;;;;;;;;;;;;15.34;49.73;101036.66;4978739;28;20081;-86
2023/05/24 07:37:54;;;;;;;;;;;;;;;15.22;48.26;101042.69;4994470;28;20362;-86
2023/05/24 07:40:27;;;;;;;9.95;2.38;;;;;;;15.26;49.86;101040.72;4990969;28;19910;-87
2023/05/24 07:43:09;;;;;;;12.98;3.30;;;;;;;14.96;49.89;101053.91;4972132;28;20067;-85
2023/05/24 07:45:37;;;;;;;15.63;3.70;;;;;;;14.49;52.19;101043.13;4973564;28;20054;-87
2023/05/24 07:48:12;;;;;;;17.10;3.50;;;;;;;14.51;53.57;101017.25;4988183;28;20086;-86
2023/05/24 07:50:51;;;;;;;11.13;2.90;;;;;;;14.93;50.25;101036.28;4984950;28;20130;-86
2023/05/24 07:57:16;;;;;;;16.08;2.95;;;;;;;15.09;50.58;101036.31;4992632;28;20045;-86
2023/05/24 08:00:09;;;;;;;9.45;3.13;;;;;;;15.53;48.84;101022.25;4988511;28;20126;-86
2023/05/24 08:02:56;;;;;;;11.07;2.83;;;;;;;15.91;47.69;101039.59;4973845;28;20058;-87
2023/05/24 08:05:58;;;;;;;12.80;2.97;;;;;;;15.86;47.35;101035.50;4988063;28;20047;-88
2023/05/24 08:08:37;;;;;;;12.52;3.30;;;;;;;15.66;47.08;101042.84;4973671;28;20051;-86
2023/05/24 08:11:23;;;;;;;10.40;2.83;;;;;;;15.05;48.70;101032.09;4974874;28;20047;-88
2023/05/24 08:14:09;;;;;;;;;;;;;;;14.58;50.76;101054.19;4969738;28;20082;-88
2023/05/24 08:16:53;;;;;;;16.58;3.30;;;;;;;14.11;50.74;101056.63;4989447;28;19928;-87
2023/05/24 08:19:34;;;;;;;9.40;2.67;;;;;;;13.44;52.43;101004.09;4989813;28;20142;-88
2023/05/24 08:22:17;;;;;;;11.98;2.88;;;;;;;13.45;52.59;101063.50;4986763;28;20050;-88
2023/05/24 08:28:47;;;;;;;14.05;3.47;;;;;;;12.74;57.35;101068.56;5014616;28;20061;-88
2023/05/24 08:31:31;;;;;;;12.75;3.20;;;;;;;12.59;58.64;101058.63;5001445;28;20053;-88
2023/05/24 08:34:14;;;;;;;13.35;3.65;;;;;;;12.37;59.38;101036.59;4997726;28;20050;-87
2023/05/24 08:36:46;;;;;;;15.32;2.92;;;;;;;12.31;59.70;101050.97;5003257;28;20061;-87
2023/05/24 08:39:28;;;;;;;13.68;2.90;;;;;;;12.32;60.16;101054.50;4943731;29;20047;-88
2023/05/24 08:42:09;;;;;;;13.90;3.45;;;;;;;12.38;60.22;101059.56;4962513;29;20051;-87
2023/05/24 08:45:16;;;;;;;11.20;3.20;;;;;;;12.44;61.99;101053.97;4957129;29;20122;-88
2023/05/24 08:48:00;;;;;;;13.95;3.22;;;;;;;12.68;60.23;101057.34;4947322;29;20530;-87
2023/05/24 08:50:42;;;;;;;16.13;4.00;;;;;;;12.99;58.43;101037.25;4963616;29;20445;-88
2023/05/24 08:53:25;;;;;;;10.07;3.00;;;;;;;13.30;55.12;101011.88;4935948;29;20054;-86
2023/05/24 08:55:55;;;;;;;13.52;2.95;;;;;;;13.61;55.20;101027.22;4958597;28;20078;-88
2023/05/24 09:02:17;;;;;;;10.15;3.15;;;;;;;14.92;51.45;101039.03;4966450;29;20042;-87
2023/05/24 09:05:05;;;;;;;13.32;3.38;;;;;;;15.12;49.00;101035.25;4946761;29;20054;-87
2023/05/24 09:08:09;;;;;;;9.52;3.13;;;;;;;15.33;49.92;101020.72;4943564;29;20039;-88
2023/05/24 09:10:57;;;;;;;15.07;4.15;;;;;;;15.34;48.17;101030.44;4938160;29;20104;-88
2023/05/24 09:13:30;;;;;;;11.18;3.30;;;;;;;14.85;48.54;101019.84;4944981;29;20046;-88
2023/05/24 09:16:24;;;;;;;14.63;3.63;;;;;;;14.55;50.46;101041.00;4948095;29;20115;-88
2023/05/24 09:18:54;;;;;;;18.57;3.87;;;;;;;14.18;50.84;101042.03;4930611;29;20087;-88
2023/05/24 09:21:21;;;;;;;11.70;3.20;;;;;;;13.93;52.07;101029.13;4930833;29;20050;-87
2023/05/24 09:24:01;;;;;;;;;;;;;;;13.98;52.59;101035.09;4935735;29;20106;-87
2023/05/24 09:26:38;;;;;;;15.60;3.67;;;;;;;13.88;52.03;101030.28;4920741;29;19923;-87
2023/05/24 09:29:09;;;;;;;16.50;3.88;;;;;;;13.76;53.22;101033.56;4939325;29;20044;-87
2023/05/24 09:32:11;;;;;;;13.10;3.50;;;;;;;13.70;53.37;101032.94;5050303;27;2090941;-88
2023/05/24 09:34:41;;;;;;;13.68;3.15;;;;;;;13.64;54.40;101009.31;5114971;28;20039;-87
2023/05/24 09:37:26;;;;;;;15.73;3.30;;;;;;;13.80;53.29;101019.19;5095670;28;20067;-86
2023/05/24 09:40:00;;;;;;;15.45;3.97;;;;;;;14.00;53.46;101035.00;5121521;28;20156;-87
2023/05/24 09:42:40;;;;;;;12.48;3.28;;;;;;;14.20;52.11;101021.50;5119558;28;20040;-87
2023/05/24 09:45:15;;;;;;;11.55;3.20;;;;;;;14.19;52.43;101025.13;5104843;28;20354;-88
2023/05/24 09:48:03;;;;;;;10.80;3.10;;;;;;;14.38;52.22;101023.22;5108012;28;20044;-89
2023/05/24 09:50:38;;;;;;;11.60;3.75;;;;;;;14.29;51.32;101018.38;5106266;28;20100;-88
2023/05/24 09:53:18;;;;;;;11.80;3.03;;;;;;;14.22;51.19;101014.31;5107554;28;20078;-88
2023/05/24 09:56:07;;;;;;;13.18;3.65;;;;;;;14.36;50.48;101016.25;5112494;28;20047;-87
2023/05/24 09:58:35;;;;;;;16.95;3.50;;;;;;;14.23;50.72;100991.19;5102239;28;20049;-88
2023/05/24 10:01:12;;;;;;;12.63;3.10;;;;;;;14.35;50.04;101018.03;5102588;28;20066;-87
2023/05/24 10:04:08;;;;;;;12.65;3.55;;;;;;;14.19;50.81;101002.94;5112957;28;20054;-89
2023/05/24 10:07:02;;;;;;;15.82;3.88;;;;;;;14.32;50.11;101020.88;5120382;28;20046;-88
2023/05/24 10:09:35;;;;;;;10.48;3.20;;;;;;;14.53;50.11;100988.72;5090477;28;20039;-87
2023/05/24 10:12:06;;;;;;;11.75;3.85;;;;;;;14.62;49.28;100985.59;5091390;28;20460;-89
2023/05/24 10:14:49;;;;;;;12.98;3.63;;;;;;;14.67;50.34;101000.38;5071743;28;20079;-87
2023/05/24 10:17:30;;;;;;;14.55;3.20;;;;;;;14.84;49.76;101009.25;5104136;28;20150;-87
2023/05/24 10:19:58;;;;;;;10.95;3.65;;;;;;;14.91;49.92;101008.84;5103218;28;20109;-87
2023/05/24 10:22:42;;;;;;;9.55;3.28;;;;;;;14.90;49.08;101023.13;5103305;28;20048;-89
2023/05/24 10:25:19;;;;;;;10.90;3.30;;;;;;;14.91;49.50;101007.97;5103331;28;20044;-89
2023/05/24 10:27:57;;;;;;;9.40;3.33;;;;;;;14.90;48.49;101001.78;5103690;28;20047;-87
2023/05/24 10:30:52;;;;;;;12.02;3.20;;;;;;;14.84;47.21;100978.13;5104744;28;20056;-87
2023/05/24 10:33:57;;;;;;;13.65;3.42;;;;;;;15.12;46.59;100996.09;5105791;28;20361;-86
2023/05/24 10:36:35;;;;;;;;;;;;;;;15.15;47.35;100998.59;5106471;28;20071;-91
2023/05/24 10:46:33;;;;;;;13.23;3.47;;;;;;;16.19;46.24;100987.22;5062662;28;20093;-87
2023/05/24 10:49:05;;;;;;;14.52;3.78;;;;;;;16.34;45.84;100995.16;5062507;28;20136;-88
2023/05/24 10:51:45;;;;;;;12.15;3.20;;;;;;;16.49;45.03;100985.31;5087228;28;20086;-87
2023/05/24 10:54:17;;;;;;;13.43;3.30;;;;;;;16.12;44.30;100965.34;5088013;28;20385;-87
2023/05/24 10:57:10;;;;;;;11.55;3.53;;;;;;;16.27;44.85;100971.56;5100269;28;20051;-89
2023/05/24 11:03:32;;;;;;;9.77;3.40;;;;;;;15.88;44.59;100967.69;5029355;28;20053;-87
2023/05/24 11:06:42;;;;;;;11.55;3.92;;;;;;;15.88;45.64;100972.16;5033197;28;20569;-87
2023/05/24 11:10:42;;;;;;;10.50;3.60;;;;;;;15.95;45.67;100978.84;4944576;29;20050;-87
2023/05/24 11:16:50;;;;;;;11.87;3.47;;;;;;;15.69;44.45;100962.56;5054189;28;20059;-86
2023/05/24 11:24:01;;;;;;;10.95;3.53;;;;;;;15.97;45.39;100955.56;5030913;28;20070;-88
2023/05/24 11:26:55;;;;;;;10.13;3.25;;;;;;;16.57;43.86;100953.59;5010674;28;20046;-87
2023/05/24 11:37:05;;;;;;;9.75;3.50;;;;;;;16.14;44.57;100961.63;4979730;28;20133;-87
2023/05/24 11:40:23;;;;;;;12.52;3.72;;;;;;;16.16;45.34;100972.22;4969923;29;20116;-89
2023/05/24 11:47:16;;;;;;;;;;;;;;;16.71;43.91;100958.97;4970384;29;20046;-88
2023/05/24 12:02:09;;;;;;;9.98;3.38;;;;;;;17.86;42.07;100941.56;4989227;28;20067;-87
2023/05/24 12:13:25;;;;;;;8.35;2.97;;;;;;;17.35;40.89;100951.25;4971231;29;20071;-86
2023/05/24 12:16:15;;;;;;;12.88;3.17;;;;;;;17.09;42.83;100934.25;4971337;28;20125;-88
2023/05/24 12:23:13;;;;;;;11.65;3.90;;;;;;;16.90;42.02;100945.28;4937960;29;20035;-88
2023/05/24 12:26:01;;;;;;;8.88;3.65;;;;;;;16.79;43.23;100913.88;4954839;28;20040;-87
2023/05/24 12:28:51;;;;;;;9.88;3.65;;;;;;;17.13;42.64;100949.16;4995320;28;20066;-88
2023/05/24 12:31:47;;;;;;;11.63;3.67;;;;;;;17.06;42.83;100932.63;5012190;28;20045;-88
2023/05/24 12:34:18;;;;;;;11.38;3.45;;;;;;;17.11;42.63;100937.69;4966192;28;20051;-87
2023/05/24 12:37:20;;;;;;;12.50;3.50;;;;;;;17.30;40.89;100954.25;4985108;28;20047;-88
2023/05/24 12:40:24;;;;;;;13.82;3.72;;;;;;;17.26;42.21;100939.34;5003329;27;4033456;-87
2023/05/24 12:43:05;;;;;;;11.68;3.13;;;;;;;17.32;41.75;100944.28;5123166;28;20055;-87
2023/05/24 12:45:46;;;;;;;;;;;;;;;17.29;41.16;100941.84;5103276;28;20032;-87
2023/05/24 12:48:14;;;;;;;12.35;3.78;;;;;;;16.87;41.90;100939.25;5103308;28;20015;-86
2023/05/24 12:50:44;;;;;;;11.15;3.40;;;;;;;16.59;41.63;100943.69;5101249;28;20045;-88
2023/05/24 12:53:12;;;;;;;10.25;3.40;;;;;;;16.52;42.58;100910.28;5085274;28;20040;-87
2023/05/24 12:55:40;;;;;;;10.48;3.63;;;;;;;16.87;43.18;100932.09;5103079;28;20040;-88
2023/05/24 12:58:21;;;;;;;10.52;3.63;;;;;;;17.14;42.24;100919.63;5104134;28;20036;-87
2023/05/24 13:05:28;;;;;;;10.02;3.30;;;;;;;17.32;40.84;100928.22;5062975;28;20052;-89
2023/05/24 13:07:56;;;;;;;11.45;3.33;;;;;;;16.95;39.60;100883.47;5067072;28;20078;-87
2023/05/24 13:14:43;;;;;;;10.57;3.60;;;;;;;17.05;41.37;100897.94;5110749;28;20051;-87
2023/05/24 13:17:52;;;;;;;8.68;3.20;;;;;;;17.22;40.63;100915.56;5048146;28;20102;-88
2023/05/24 13:24:06;;;;;;;11.57;3.20;;;;;;;17.66;40.00;100908.09;5070530;28;20045;-90
2023/05/24 13:26:51;;;;;;;11.77;3.30;;;;;;;17.67;38.76;100907.16;5065968;28;20045;-87
2023/05/24 13:29:43;;;;;;;7.22;3.17;;;;;;;17.71;39.34;100903.31;5055997;28;20543;-88
2023/05/24 13:32:27;;;;;;;8.57;3.30;;;;;;;17.47;40.50;100915.66;5068519;28;20049;-88
2023/05/24 13:35:21;;;;;;;9.27;3.63;;;;;;;17.09;40.14;100888.75;5046233;28;20072;-89
2023/05/24 13:38:28;;;;;;;9.70;3.40;;;;;;;16.86;41.02;100890.25;5033850;28;20056;-88